Alys Beach, Florida
Current Conditions -  °F | °C
As of 5:53 AM on Thursday 25 Dec 2014 (Local Time) from KECP Reporting Station
Broken Clouds Broken Clouds  
Wind Chill: 40°   Ceiling: 3700
Heat Index: 44°   Visibility: 10mi
Dew Point: 39°   Wind: 7mph
Humidity: 82%   Direction: 290°WNW
Pressure: 30.19"   Gusts: NA
Location:  30.2534°N, 85.9486°W
Report Text: KECP 251153Z 29006KT 10SM BKN037 07/04 A3019 RMK AO2 SLP248 70015 T00670039 10117 20067 53043 $
Loading
Personal Weather Stations






























Interactive Weather Map New forecast layout! Learn more

10-Day Weather Forecast

Advertisements
Track Severe Weather on mobile